Browerville, Minnesota
Current Conditions -  °F | °C
As of 5:22 AM on Monday 20 Oct 2014 (Local Time) from K14Y Reporting Station
Clear Clear  
Wind Chill: 40°   Ceiling: Unl
Heat Index: 45°   Visibility: 10mi
Dew Point: 39°   Wind: 8mph
Humidity: 81%   Direction: 280°W
Pressure: 29.96"   Gusts: NA
Location:  46.09°N, 94.87°W
Report Text: K14Y 201022Z AUTO 28007KT 10SM CLR 07/04 A2996 RMK AO2
Loading
Personal Weather Stations






























Interactive Weather Map
Tropical Storm Tracking
New forecast layout! Learn more

10-Day Weather Forecast

Advertisements
Track Severe Weather on mobile